Boca Raton, FL (33433)

11:22 PM EST on December 08, 2016 (GMT -0500)
| | Change Station

Elev -9999 ft 0.00 °N, 0.00 °E | Updated 2 minutes ago

Mostly Cloudy
Mostly Cloudy
77 °F
Feels Like 77 °F
N
13
Wind Variable Wind from ENE
Gusts 18 mph

Today
High -- | Low -- °F
--% Chance of Precip.
Yesterday
High -- | Low -- °F
Precip. -- in
Pressure 30.12 in
Visibility 7.0 miles
Clouds Clear
Dew Point 66 °F
Humidity 69%
Rainfall --
Snow Depth Not available.
6:56 AM 5:28 PM
Waxing Gibbous, 70% visible
METAR KPMP 090353Z AUTO 36006KT 7SM CLR 22/20 A3011 RMK AO2 SLP198 T02220200
Pressure 30.12 in
Visibility 7.0 miles
Clouds Clear
Dew Point 66 °F
Humidity 69%
Rainfall --
Snow Depth Not available.
6:56 AM 5:28 PM
Waxing Gibbous, 70% visible
METAR KPMP 090353Z AUTO 36006KT 7SM CLR 22/20 A3011 RMK AO2 SLP198 T02220200

10-Day Weather Forecast

Almanac

Astronomy

Dec. 08, 2016 Rise Set
Actual Time
Civil Twilight
Nautical Twilight
Astronomical Twilight
Moon
Length of Visible Light
Length of Day
Tomorrow will be .
, % of the Moon is Illuminated

Today's Extremes

State Highs State Lows

Community

WunderPhotos

Upload Photos

1,956,370 photos uploaded!

WunderBlog® & News

Nearby

Air Quality

  Air Quality AQ Index Pollutant
Not available.

Snow Depth

Station Depth Elevation

Earthquake Activity

City Distance Mag. Time & Date
Minimum magnitude displayed is 2.5.

Coastal Water Temperatures

Place Temperature

Stations

Nearby Weather Stations

Station Location Temp. Windchill Dew Point Humidity Wind Precip. Elev Updated Type
                   

Watches & Warnings

There are currently no watches in effect.